createdAt,value
2023-05-13T00:00:05.415Z,95586.00
2023-05-13T00:01:05.441Z,95588.00
2023-05-13T00:02:04.496Z,95586.00
2023-05-13T00:03:05.641Z,95584.00
2023-05-13T00:04:05.575Z,95584.00
2023-05-13T00:05:05.622Z,95586.00
2023-05-13T00:06:04.694Z,95584.00
2023-05-13T00:07:04.689Z,95584.00
2023-05-13T00:08:05.753Z,95586.00
2023-05-13T00:09:05.823Z,95584.00
2023-05-13T00:10:05.857Z,95588.00
2023-05-13T00:11:05.873Z,95588.00
2023-05-13T00:12:04.922Z,95588.00
2023-05-13T00:13:05.016Z,95588.00
2023-05-13T00:14:06.224Z,95588.00
2023-05-13T00:15:06.033Z,95588.00
2023-05-13T00:16:05.139Z,95588.00
2023-05-13T00:17:06.149Z,95586.00
2023-05-13T00:18:06.237Z,95586.00
2023-05-13T00:19:05.325Z,95586.00
2023-05-13T00:20:06.265Z,95588.00
2023-05-13T00:21:06.308Z,95588.00
2023-05-13T00:22:06.362Z,95588.00
2023-05-13T00:23:05.402Z,95586.00
2023-05-13T00:24:05.461Z,95586.00
2023-05-13T00:25:06.500Z,95588.00
2023-05-13T00:26:06.539Z,95588.00
2023-05-13T00:27:06.572Z,95592.00
2023-05-13T00:28:05.619Z,95588.00
2023-05-13T00:29:06.654Z,95588.00
2023-05-13T00:30:06.834Z,95590.00
2023-05-13T00:31:05.781Z,95590.00
2023-05-13T00:32:06.785Z,95590.00
2023-05-13T00:33:05.869Z,95592.00
2023-05-13T00:34:06.907Z,95592.00
2023-05-13T00:35:05.926Z,95592.00
2023-05-13T00:36:06.957Z,95592.00
2023-05-13T00:37:06.994Z,95590.00
2023-05-13T00:38:07.069Z,95592.00
2023-05-13T00:39:07.255Z,95590.00
2023-05-13T00:40:06.135Z,95594.00
2023-05-13T00:41:06.208Z,95592.00
2023-05-13T00:42:06.231Z,95592.00
2023-05-13T00:43:06.259Z,95592.00
2023-05-13T00:44:06.343Z,95592.00
2023-05-13T00:45:07.362Z,95592.00
2023-05-13T00:46:07.402Z,95594.00
2023-05-13T00:47:06.428Z,95592.00
2023-05-13T00:48:06.536Z,95592.00
2023-05-13T00:49:07.522Z,95592.00
2023-05-13T00:50:06.564Z,95592.00
2023-05-13T00:51:07.626Z,95592.00
2023-05-13T00:52:07.677Z,95592.00
2023-05-13T00:53:07.509Z,95594.00
2023-05-13T00:54:07.764Z,95592.00
2023-05-13T00:55:07.772Z,95594.00
2023-05-13T00:56:06.817Z,95596.00
2023-05-13T00:57:07.920Z,95594.00
2023-05-13T00:58:07.925Z,95596.00
2023-05-13T00:59:06.959Z,95596.00
2023-05-13T01:00:08.038Z,95598.00
2023-05-13T01:01:08.105Z,95598.00
2023-05-13T01:02:07.136Z,95598.00
2023-05-13T01:03:08.229Z,95596.00
2023-05-13T01:04:07.191Z,95598.00
2023-05-13T01:05:07.237Z,95600.00
2023-05-13T01:06:07.315Z,95600.00
2023-05-13T01:07:08.366Z,95600.00
2023-05-13T01:08:07.391Z,95602.00
2023-05-13T01:09:08.410Z,95602.00
2023-05-13T01:10:07.436Z,95602.00
2023-05-13T01:11:07.487Z,95602.00
2023-05-13T01:12:07.545Z,95602.00
2023-05-13T01:13:07.574Z,95602.00
2023-05-13T01:14:07.634Z,95602.00
2023-05-13T01:15:07.680Z,95602.00
2023-05-13T01:16:08.747Z,95600.00
2023-05-13T01:17:08.788Z,95602.00
2023-05-13T01:18:08.840Z,95604.00
2023-05-13T01:19:07.889Z,95598.00
2023-05-13T01:20:07.863Z,95600.00
2023-05-13T01:21:07.909Z,95598.00
2023-05-13T01:22:08.963Z,95600.00
2023-05-13T01:23:08.055Z,95600.00
2023-05-13T01:24:08.096Z,95600.00
2023-05-13T01:25:09.085Z,95600.00
2023-05-13T01:26:09.140Z,95600.00
2023-05-13T01:27:08.176Z,95602.00
2023-05-13T01:28:08.233Z,95602.00
2023-05-13T01:29:09.281Z,95604.00
2023-05-13T01:30:08.318Z,95604.00
2023-05-13T01:31:09.437Z,95606.00
2023-05-13T01:32:09.404Z,95606.00
2023-05-13T01:33:09.585Z,95608.00
2023-05-13T01:34:08.513Z,95606.00
2023-05-13T01:35:09.572Z,95606.00
2023-05-13T01:36:09.602Z,95608.00
2023-05-13T01:37:08.694Z,95606.00
2023-05-13T01:38:08.689Z,95610.00
2023-05-13T01:39:09.743Z,95610.00
2023-05-13T01:40:14.565Z,95610.00
2023-05-13T01:41:09.775Z,95610.00
2023-05-13T01:42:09.753Z,95608.00
2023-05-13T01:43:08.760Z,95608.00
2023-05-13T01:44:08.769Z,95610.00
2023-05-13T01:45:09.735Z,95610.00
2023-05-13T01:46:08.761Z,95610.00
2023-05-13T01:47:08.715Z,95610.00
2023-05-13T01:48:08.811Z,95614.00
2023-05-13T01:49:08.707Z,95614.00
2023-05-13T01:50:08.712Z,95612.00
2023-05-13T01:51:08.700Z,95612.00
2023-05-13T01:52:09.678Z,95614.00
2023-05-13T01:53:08.743Z,95614.00
2023-05-13T01:54:09.798Z,95612.00
2023-05-13T01:55:08.870Z,95612.00
2023-05-13T01:56:09.927Z,95614.00
2023-05-13T01:57:09.054Z,95616.00
2023-05-13T01:58:09.949Z,95616.00
2023-05-13T01:59:10.003Z,95616.00
2023-05-13T02:00:09.047Z,95616.00
2023-05-13T02:01:10.121Z,95618.00
2023-05-13T02:02:10.274Z,95616.00
2023-05-13T02:03:10.249Z,95616.00
2023-05-13T02:04:09.223Z,95616.00
2023-05-13T02:05:09.276Z,95618.00
2023-05-13T02:06:09.314Z,95616.00
2023-05-13T02:07:10.366Z,95616.00
2023-05-13T02:08:09.410Z,95616.00
2023-05-13T02:09:10.458Z,95614.00
2023-05-13T02:10:10.508Z,95614.00
2023-05-13T02:11:10.575Z,95614.00
2023-05-13T02:12:10.592Z,95614.00
2023-05-13T02:13:09.640Z,95614.00
2023-05-13T02:14:09.688Z,95614.00
2023-05-13T02:15:09.736Z,95614.00
2023-05-13T02:16:09.789Z,95616.00
2023-05-13T02:17:10.879Z,95614.00
2023-05-13T02:18:10.959Z,95616.00
2023-05-13T02:19:10.033Z,95618.00
2023-05-13T02:20:10.268Z,95616.00
2023-05-13T02:21:11.030Z,95616.00
2023-05-13T02:22:10.068Z,95616.00
2023-05-13T02:23:10.117Z,95616.00
2023-05-13T02:24:11.178Z,95618.00
2023-05-13T02:25:11.201Z,95618.00
2023-05-13T02:26:10.285Z,95618.00
2023-05-13T02:27:10.317Z,95620.00
2023-05-13T02:28:10.336Z,95618.00
2023-05-13T02:29:11.367Z,95618.00
2023-05-13T02:30:11.433Z,95618.00
2023-05-13T02:31:10.479Z,95618.00
2023-05-13T02:32:10.609Z,95620.00
2023-05-13T02:33:11.659Z,95618.00
2023-05-13T02:34:10.611Z,95618.00
2023-05-13T02:35:10.648Z,95616.00
2023-05-13T02:36:11.684Z,95618.00
2023-05-13T02:37:11.733Z,95618.00
2023-05-13T02:38:10.789Z,95618.00
2023-05-13T02:39:11.830Z,95618.00
2023-05-13T02:40:10.873Z,95618.00
2023-05-13T02:41:11.926Z,95618.00
2023-05-13T02:42:11.937Z,95616.00
2023-05-13T02:43:12.013Z,95618.00
2023-05-13T02:44:12.044Z,95618.00
2023-05-13T02:45:12.125Z,95618.00
2023-05-13T02:46:11.182Z,95616.00
2023-05-13T02:47:12.516Z,95618.00
2023-05-13T02:48:12.222Z,95618.00
2023-05-13T02:49:12.285Z,95616.00
2023-05-13T02:50:12.314Z,95614.00
2023-05-13T02:51:11.475Z,95614.00
2023-05-13T02:52:12.407Z,95616.00
2023-05-13T02:53:12.440Z,95614.00
2023-05-13T02:54:12.484Z,95614.00
2023-05-13T02:55:12.700Z,95616.00
2023-05-13T02:56:12.624Z,95616.00
2023-05-13T02:57:12.656Z,95618.00
2023-05-13T02:58:11.694Z,95616.00
2023-05-13T02:59:12.766Z,95616.00
2023-05-13T03:00:12.784Z,95614.00
2023-05-13T03:01:11.887Z,95614.00
2023-05-13T03:02:12.895Z,95616.00
2023-05-13T03:03:12.037Z,95614.00
2023-05-13T03:04:11.982Z,95616.00
2023-05-13T03:05:13.009Z,95614.00
2023-05-13T03:06:12.056Z,95614.00
2023-05-13T03:07:13.117Z,95616.00
2023-05-13T03:08:13.129Z,95614.00
2023-05-13T03:09:12.208Z,95616.00
2023-05-13T03:10:12.236Z,95618.00
2023-05-13T03:11:12.295Z,95620.00
2023-05-13T03:12:13.348Z,95618.00
2023-05-13T03:13:13.499Z,95616.00
2023-05-13T03:14:13.405Z,95620.00
2023-05-13T03:15:12.512Z,95618.00
2023-05-13T03:16:13.527Z,95618.00
2023-05-13T03:17:13.521Z,95620.00
2023-05-13T03:18:12.594Z,95620.00
2023-05-13T03:19:13.716Z,95620.00
2023-05-13T03:20:13.660Z,95622.00
2023-05-13T03:21:12.719Z,95622.00
2023-05-13T03:22:13.763Z,95620.00
2023-05-13T03:23:13.820Z,95620.00
2023-05-13T03:24:13.850Z,95622.00
2023-05-13T03:25:12.901Z,95622.00
2023-05-13T03:26:12.948Z,95624.00
2023-05-13T03:27:14.000Z,95624.00
2023-05-13T03:28:14.061Z,95626.00
2023-05-13T03:29:14.084Z,95626.00
2023-05-13T03:30:13.111Z,95626.00
2023-05-13T03:31:13.259Z,95626.00
2023-05-13T03:32:14.214Z,95624.00
2023-05-13T03:33:14.301Z,95626.00
2023-05-13T03:34:13.313Z,95624.00
2023-05-13T03:35:14.374Z,95628.00
2023-05-13T03:36:14.399Z,95628.00
2023-05-13T03:37:14.435Z,95626.00
2023-05-13T03:38:14.491Z,95628.00
2023-05-13T03:39:14.565Z,95628.00
2023-05-13T03:40:13.589Z,95632.00
2023-05-13T03:41:14.643Z,95630.00
2023-05-13T03:42:14.696Z,95630.00
2023-05-13T03:43:13.766Z,95630.00
2023-05-13T03:44:14.812Z,95630.00
2023-05-13T03:45:13.868Z,95632.00
2023-05-13T03:46:13.926Z,95632.00
2023-05-13T03:47:14.973Z,95632.00
2023-05-13T03:48:15.013Z,95634.00
2023-05-13T03:49:15.030Z,95635.00
2023-05-13T03:50:15.084Z,95635.00
2023-05-13T03:51:14.146Z,95635.00
2023-05-13T03:52:14.213Z,95637.00
2023-05-13T03:53:15.263Z,95639.00
2023-05-13T03:54:15.307Z,95639.00
2023-05-13T03:55:15.393Z,95643.00
2023-05-13T03:56:14.789Z,95643.00
2023-05-13T03:57:15.450Z,95641.00
2023-05-13T03:58:15.524Z,95641.00
2023-05-13T03:59:15.555Z,95641.00
2023-05-13T04:00:15.625Z,95643.00
2023-05-13T04:01:15.653Z,95641.00
2023-05-13T04:02:14.722Z,95643.00
2023-05-13T04:03:16.349Z,95645.00
2023-05-13T04:04:15.805Z,95643.00
2023-05-13T04:05:15.902Z,95643.00
2023-05-13T04:06:15.898Z,95643.00
2023-05-13T04:07:15.906Z,95645.00
2023-05-13T04:08:14.963Z,95647.00
2023-05-13T04:09:15.016Z,95647.00
2023-05-13T04:10:17.961Z,95647.00
2023-05-13T04:11:15.084Z,95645.00
2023-05-13T04:12:15.056Z,95649.00
2023-05-13T04:13:16.042Z,95649.00
2023-05-13T04:14:16.031Z,95645.00
2023-05-13T04:15:15.020Z,95645.00
2023-05-13T04:16:16.033Z,95647.00
2023-05-13T04:17:15.071Z,95647.00
2023-05-13T04:18:15.012Z,95649.00
2023-05-13T04:19:15.059Z,95647.00
2023-05-13T04:20:15.004Z,95649.00
2023-05-13T04:21:15.999Z,95649.00
2023-05-13T04:22:14.984Z,95657.00
2023-05-13T04:23:14.965Z,95657.00
2023-05-13T04:24:15.975Z,95657.00
2023-05-13T04:25:14.983Z,95657.00
2023-05-13T04:26:15.948Z,95661.00
2023-05-13T04:27:14.933Z,95663.00
2023-05-13T04:28:14.969Z,95661.00
2023-05-13T04:29:15.927Z,95665.00
2023-05-13T04:30:15.945Z,95665.00
2023-05-13T04:31:15.948Z,95665.00
2023-05-13T04:32:16.277Z,95665.00
2023-05-13T04:33:14.946Z,95667.00
2023-05-13T04:34:15.913Z,95667.00
2023-05-13T04:35:14.914Z,95669.00
2023-05-13T04:36:15.328Z,95671.00
2023-05-13T04:37:15.875Z,95673.00
2023-05-13T04:38:14.865Z,95671.00
2023-05-13T04:39:14.862Z,95671.00
2023-05-13T04:40:15.852Z,95673.00
2023-05-13T04:41:14.843Z,95675.00
2023-05-13T04:42:15.854Z,95677.00
2023-05-13T04:43:15.902Z,95677.00
2023-05-13T04:44:15.934Z,95677.00
2023-05-13T04:45:16.021Z,95679.00
2023-05-13T04:46:15.059Z,95679.00
2023-05-13T04:47:16.071Z,95681.00
2023-05-13T04:48:15.120Z,95681.00
2023-05-13T04:49:16.761Z,95681.00
2023-05-13T04:50:15.217Z,95681.00
2023-05-13T04:51:15.274Z,95681.00
2023-05-13T04:52:15.282Z,95683.00
2023-05-13T04:53:16.365Z,95683.00
2023-05-13T04:54:16.356Z,95683.00
2023-05-13T04:55:16.409Z,95685.00
2023-05-13T04:56:16.465Z,95685.00
2023-05-13T04:57:16.498Z,95683.00
2023-05-13T04:58:16.524Z,95683.00
2023-05-13T04:59:16.569Z,95681.00
2023-05-13T05:00:16.645Z,95683.00
2023-05-13T05:01:15.706Z,95683.00
2023-05-13T05:02:16.026Z,95685.00
2023-05-13T05:03:15.741Z,95690.00
2023-05-13T05:04:16.914Z,95685.00
2023-05-13T05:05:18.522Z,95687.00
2023-05-13T05:06:17.468Z,95687.00
2023-05-13T05:07:15.846Z,95688.00
2023-05-13T05:08:15.802Z,95688.00
2023-05-13T05:09:15.803Z,95694.00
2023-05-13T05:10:15.789Z,95690.00
2023-05-13T05:11:16.788Z,95696.00
2023-05-13T05:12:16.797Z,95698.00
2023-05-13T05:13:15.778Z,95694.00
2023-05-13T05:14:16.758Z,95696.00
2023-05-13T05:15:16.009Z,95700.00
2023-05-13T05:16:15.735Z,95696.00
2023-05-13T05:17:15.768Z,95696.00
2023-05-13T05:18:15.819Z,95694.00
2023-05-13T05:19:17.062Z,95696.00
2023-05-13T05:20:16.876Z,95696.00
2023-05-13T05:21:16.910Z,95702.00
2023-05-13T05:22:16.983Z,95702.00
2023-05-13T05:23:17.053Z,95702.00
2023-05-13T05:24:16.102Z,95702.00
2023-05-13T05:25:17.133Z,95704.00
2023-05-13T05:26:17.141Z,95704.00
2023-05-13T05:27:17.230Z,95698.00
2023-05-13T05:28:17.266Z,95700.00
2023-05-13T05:29:17.284Z,95700.00
2023-05-13T05:30:17.351Z,95706.00
2023-05-13T05:31:16.421Z,95702.00
2023-05-13T05:32:17.456Z,95702.00
2023-05-13T05:33:16.491Z,95702.00
2023-05-13T05:34:16.501Z,95702.00
2023-05-13T05:35:16.571Z,95704.00
2023-05-13T05:36:17.588Z,95706.00
2023-05-13T05:37:17.699Z,95706.00
2023-05-13T05:38:17.744Z,95708.00
2023-05-13T05:39:17.747Z,95708.00
2023-05-13T05:40:17.867Z,95710.00
2023-05-13T05:41:16.818Z,95712.00
2023-05-13T05:42:17.846Z,95718.00
2023-05-13T05:43:17.957Z,95714.00
2023-05-13T05:44:16.935Z,95714.00
2023-05-13T05:45:16.977Z,95714.00
2023-05-13T05:46:18.065Z,95716.00
2023-05-13T05:47:18.052Z,95720.00
2023-05-13T05:48:17.123Z,95716.00
2023-05-13T05:49:18.180Z,95720.00
2023-05-13T05:50:17.185Z,95714.00
2023-05-13T05:51:18.215Z,95714.00
2023-05-13T05:52:17.282Z,95720.00
2023-05-13T05:53:18.324Z,95720.00
2023-05-13T05:54:17.385Z,95720.00
2023-05-13T05:55:18.423Z,95712.00
2023-05-13T05:56:18.448Z,95718.00
2023-05-13T05:57:17.495Z,95716.00
2023-05-13T05:58:17.552Z,95716.00
2023-05-13T05:59:17.590Z,95716.00
2023-05-13T06:00:18.817Z,95718.00
2023-05-13T06:01:18.689Z,95710.00
2023-05-13T06:02:18.808Z,95712.00
2023-05-13T06:03:18.913Z,95712.00
2023-05-13T06:04:18.902Z,95718.00
2023-05-13T06:05:18.942Z,95720.00
2023-05-13T06:06:18.919Z,95718.00
2023-05-13T06:07:18.095Z,95716.00
2023-05-13T06:08:18.011Z,95714.00
2023-05-13T06:09:18.054Z,95720.00
2023-05-13T06:10:19.364Z,95714.00
2023-05-13T06:11:18.133Z,95722.00
2023-05-13T06:12:18.161Z,95718.00
2023-05-13T06:13:18.198Z,95716.00
2023-05-13T06:14:19.309Z,95722.00
2023-05-13T06:15:19.287Z,95722.00
2023-05-13T06:16:19.357Z,95716.00
2023-05-13T06:17:19.371Z,95722.00
2023-05-13T06:18:19.428Z,95724.00
2023-05-13T06:19:18.524Z,95722.00
2023-05-13T06:20:19.813Z,95722.00
2023-05-13T06:21:18.542Z,95722.00
2023-05-13T06:22:19.642Z,95724.00
2023-05-13T06:23:19.640Z,95722.00
2023-05-13T06:24:19.705Z,95722.00
2023-05-13T06:25:18.744Z,95724.00
2023-05-13T06:26:19.830Z,95724.00
2023-05-13T06:27:19.890Z,95724.00
2023-05-13T06:28:19.891Z,95728.00
2023-05-13T06:29:19.984Z,95726.00
2023-05-13T06:30:19.224Z,95726.00
2023-05-13T06:31:20.111Z,95726.00
2023-05-13T06:32:20.135Z,95726.00
2023-05-13T06:33:19.204Z,95728.00
2023-05-13T06:34:19.202Z,95728.00
2023-05-13T06:35:20.260Z,95728.00
2023-05-13T06:36:20.331Z,95726.00
2023-05-13T06:37:20.294Z,95726.00
2023-05-13T06:38:20.347Z,95728.00
2023-05-13T06:39:19.444Z,95728.00
2023-05-13T06:40:20.690Z,95726.00
2023-05-13T06:41:19.453Z,95728.00
2023-05-13T06:42:19.541Z,95728.00
2023-05-13T06:43:20.558Z,95730.00
2023-05-13T06:44:20.636Z,95730.00
2023-05-13T06:45:19.700Z,95730.00
2023-05-13T06:46:19.741Z,95728.00
2023-05-13T06:47:21.874Z,95728.00
2023-05-13T06:48:20.947Z,95728.00
2023-05-13T06:49:19.753Z,95728.00
2023-05-13T06:50:21.116Z,95730.00
2023-05-13T06:51:19.724Z,95730.00
2023-05-13T06:52:20.731Z,95730.00
2023-05-13T06:53:20.713Z,95732.00
2023-05-13T06:54:19.715Z,95730.00
2023-05-13T06:55:20.697Z,95732.00
2023-05-13T06:56:20.691Z,95730.00
2023-05-13T06:57:21.923Z,95730.00
2023-05-13T06:58:19.816Z,95732.00
2023-05-13T06:59:20.662Z,95732.00
2023-05-13T07:00:20.886Z,95734.00
2023-05-13T07:01:19.779Z,95732.00
2023-05-13T07:02:19.637Z,95732.00
2023-05-13T07:03:19.697Z,95732.00
2023-05-13T07:04:21.049Z,95732.00
2023-05-13T07:05:19.622Z,95734.00
2023-05-13T07:06:19.607Z,95730.00
2023-05-13T07:07:19.603Z,95730.00
2023-05-13T07:08:20.586Z,95730.00
2023-05-13T07:09:19.606Z,95732.00
2023-05-13T07:10:19.634Z,95734.00
2023-05-13T07:11:20.593Z,95732.00
2023-05-13T07:12:20.580Z,95730.00
2023-05-13T07:13:20.557Z,95734.00
2023-05-13T07:14:19.585Z,95732.00
2023-05-13T07:15:19.644Z,95735.00
2023-05-13T07:16:20.551Z,95735.00
2023-05-13T07:17:20.579Z,95735.00
2023-05-13T07:18:20.573Z,95735.00
2023-05-13T07:19:19.706Z,95734.00
2023-05-13T07:20:19.822Z,95734.00
2023-05-13T07:21:20.549Z,95735.00
2023-05-13T07:22:20.586Z,95735.00
2023-05-13T07:23:19.651Z,95737.00
2023-05-13T07:24:20.673Z,95735.00
2023-05-13T07:25:20.726Z,95735.00
2023-05-13T07:26:19.775Z,95735.00
2023-05-13T07:27:20.815Z,95735.00
2023-05-13T07:28:20.890Z,95737.00
2023-05-13T07:29:19.917Z,95735.00
2023-05-13T07:30:21.167Z,95734.00
2023-05-13T07:31:21.056Z,95734.00
2023-05-13T07:32:20.076Z,95730.00
2023-05-13T07:33:21.110Z,95732.00
2023-05-13T07:34:20.166Z,95732.00
2023-05-13T07:35:21.428Z,95728.00
2023-05-13T07:36:20.259Z,95728.00
2023-05-13T07:37:21.307Z,95728.00
2023-05-13T07:38:21.314Z,95728.00
2023-05-13T07:39:20.405Z,95728.00
2023-05-13T07:40:21.695Z,95728.00
2023-05-13T07:41:21.487Z,95728.00
2023-05-13T07:42:21.530Z,95728.00
2023-05-13T07:43:20.573Z,95728.00
2023-05-13T07:44:20.647Z,95726.00
2023-05-13T07:45:21.038Z,95726.00
2023-05-13T07:46:21.763Z,95728.00
2023-05-13T07:47:21.826Z,95728.00
2023-05-13T07:48:21.778Z,95724.00
2023-05-13T07:49:21.869Z,95728.00
2023-05-13T07:50:21.868Z,95724.00
2023-05-13T07:51:20.938Z,95728.00
2023-05-13T07:52:21.986Z,95726.00
2023-05-13T07:53:22.020Z,95726.00
2023-05-13T07:54:22.106Z,95724.00
2023-05-13T07:55:22.314Z,95724.00
2023-05-13T07:56:22.143Z,95722.00
2023-05-13T07:57:22.224Z,95720.00
2023-05-13T07:58:22.239Z,95720.00
2023-05-13T07:59:22.336Z,95720.00
2023-05-13T08:00:22.331Z,95722.00
2023-05-13T08:01:22.362Z,95716.00
2023-05-13T08:02:21.458Z,95718.00
2023-05-13T08:03:21.785Z,95716.00
2023-05-13T08:04:22.722Z,95720.00
2023-05-13T08:05:21.756Z,95718.00
2023-05-13T08:06:22.588Z,95718.00
2023-05-13T08:07:22.645Z,95718.00
2023-05-13T08:08:22.694Z,95716.00
2023-05-13T08:09:22.767Z,95716.00
2023-05-13T08:10:22.822Z,95712.00
2023-05-13T08:11:21.815Z,95712.00
2023-05-13T08:12:22.865Z,95712.00
2023-05-13T08:13:21.904Z,95712.00
2023-05-13T08:14:21.928Z,95714.00
2023-05-13T08:15:23.194Z,95710.00
2023-05-13T08:16:23.147Z,95712.00
2023-05-13T08:17:22.134Z,95712.00
2023-05-13T08:18:23.215Z,95710.00
2023-05-13T08:19:22.212Z,95714.00
2023-05-13T08:20:22.191Z,95710.00
2023-05-13T08:21:22.260Z,95716.00
2023-05-13T08:22:23.264Z,95708.00
2023-05-13T08:23:33.239Z,95710.00
2023-05-13T08:24:23.318Z,95714.00
2023-05-13T08:25:22.483Z,95710.00
2023-05-13T08:26:22.281Z,95714.00
2023-05-13T08:27:22.269Z,95712.00
2023-05-13T08:28:22.266Z,95710.00
2023-05-13T08:29:22.288Z,95712.00
2023-05-13T08:30:23.304Z,95712.00
2023-05-13T08:31:22.288Z,95708.00
2023-05-13T08:32:22.281Z,95712.00
2023-05-13T08:33:23.384Z,95710.00
2023-05-13T08:34:23.297Z,95708.00
2023-05-13T08:35:22.474Z,95708.00
2023-05-13T08:36:23.213Z,95708.00
2023-05-13T08:37:23.219Z,95706.00
2023-05-13T08:38:22.207Z,95708.00
2023-05-13T08:39:22.193Z,95708.00
2023-05-13T08:40:23.311Z,95708.00
2023-05-13T08:41:22.266Z,95712.00
2023-05-13T08:42:23.189Z,95710.00
2023-05-13T08:43:23.166Z,95712.00
2023-05-13T08:44:22.170Z,95712.00
2023-05-13T08:45:23.362Z,95714.00
2023-05-13T08:46:22.229Z,95714.00
2023-05-13T08:47:23.197Z,95712.00
2023-05-13T08:48:23.150Z,95712.00
2023-05-13T08:49:23.140Z,95710.00
2023-05-13T08:50:23.294Z,95706.00
2023-05-13T08:51:22.124Z,95708.00
2023-05-13T08:52:22.109Z,95706.00
2023-05-13T08:53:23.101Z,95704.00
2023-05-13T08:54:24.092Z,95704.00
2023-05-13T08:55:23.361Z,95702.00
2023-05-13T08:56:23.119Z,95700.00
2023-05-13T08:57:23.108Z,95700.00
2023-05-13T08:58:22.109Z,95698.00
2023-05-13T08:59:23.141Z,95696.00
2023-05-13T09:00:22.176Z,95696.00
2023-05-13T09:01:23.211Z,95694.00
2023-05-13T09:02:22.222Z,95696.00
2023-05-13T09:03:23.268Z,95696.00
2023-05-13T09:04:22.285Z,95694.00
2023-05-13T09:05:23.643Z,95696.00
2023-05-13T09:06:23.354Z,95696.00
2023-05-13T09:07:23.387Z,95696.00
2023-05-13T09:08:23.420Z,95696.00
2023-05-13T09:09:23.385Z,95696.00
2023-05-13T09:10:22.417Z,95694.00
2023-05-13T09:11:23.427Z,95694.00
2023-05-13T09:12:23.442Z,95690.00
2023-05-13T09:13:23.470Z,95692.00
2023-05-13T09:14:23.481Z,95690.00
2023-05-13T09:15:23.011Z,95690.00
2023-05-13T09:16:22.579Z,95690.00
2023-05-13T09:17:23.563Z,95688.00
2023-05-13T09:18:23.663Z,95687.00
2023-05-13T09:19:23.839Z,95688.00
2023-05-13T09:20:23.596Z,95690.00
2023-05-13T09:21:23.623Z,95688.00
2023-05-13T09:22:22.628Z,95690.00
2023-05-13T09:23:22.627Z,95688.00
2023-05-13T09:24:23.635Z,95690.00
2023-05-13T09:25:24.062Z,95685.00
2023-05-13T09:26:22.679Z,95688.00
2023-05-13T09:27:23.709Z,95687.00
2023-05-13T09:28:23.697Z,95685.00
2023-05-13T09:29:24.362Z,95685.00
2023-05-13T09:30:22.755Z,95683.00
2023-05-13T09:31:23.833Z,95683.00
2023-05-13T09:32:23.774Z,95685.00
2023-05-13T09:33:23.806Z,95685.00
2023-05-13T09:34:22.781Z,95685.00
2023-05-13T09:35:23.044Z,95683.00
2023-05-13T09:36:23.813Z,95685.00
2023-05-13T09:37:22.807Z,95685.00
2023-05-13T09:38:22.849Z,95681.00
2023-05-13T09:39:22.815Z,95683.00
2023-05-13T09:40:23.101Z,95681.00
2023-05-13T09:41:23.844Z,95677.00
2023-05-13T09:42:23.855Z,95679.00
2023-05-13T09:43:23.900Z,95675.00
2023-05-13T09:44:23.869Z,95677.00
2023-05-13T09:45:24.022Z,95675.00
2023-05-13T09:46:23.954Z,95675.00
2023-05-13T09:47:23.927Z,95675.00
2023-05-13T09:48:23.937Z,95673.00
2023-05-13T09:49:23.950Z,95673.00
2023-05-13T09:50:23.646Z,95673.00
2023-05-13T09:51:24.085Z,95669.00
2023-05-13T09:52:24.044Z,95667.00
2023-05-13T09:53:24.022Z,95663.00
2023-05-13T09:54:24.121Z,95667.00
2023-05-13T09:55:23.032Z,95663.00
2023-05-13T09:56:24.116Z,95661.00
2023-05-13T09:57:23.060Z,95657.00
2023-05-13T09:58:24.095Z,95657.00
2023-05-13T09:59:24.154Z,95657.00
2023-05-13T10:00:32.133Z,95657.00
2023-05-13T10:01:24.194Z,95657.00
2023-05-13T10:02:24.169Z,95659.00
2023-05-13T10:03:23.197Z,95657.00
2023-05-13T10:04:23.125Z,95649.00
2023-05-13T10:05:24.072Z,95657.00
2023-05-13T10:06:23.107Z,95657.00
2023-05-13T10:07:24.062Z,95657.00
2023-05-13T10:08:23.065Z,95649.00
2023-05-13T10:09:23.045Z,95649.00
2023-05-13T10:10:23.281Z,95657.00
2023-05-13T10:11:24.047Z,95647.00
2023-05-13T10:12:24.051Z,95657.00
2023-05-13T10:13:23.040Z,95643.00
2023-05-13T10:14:24.104Z,95647.00
2023-05-13T10:15:24.035Z,95645.00
2023-05-13T10:16:23.064Z,95645.00
2023-05-13T10:17:23.008Z,95645.00
2023-05-13T10:18:23.098Z,95645.00
2023-05-13T10:19:22.981Z,95643.00
2023-05-13T10:20:24.279Z,95643.00
2023-05-13T10:21:23.002Z,95641.00
2023-05-13T10:22:23.014Z,95641.00
2023-05-13T10:23:24.650Z,95641.00
2023-05-13T10:24:23.106Z,95641.00
2023-05-13T10:25:23.129Z,95643.00
2023-05-13T10:26:23.152Z,95643.00
2023-05-13T10:27:23.166Z,95641.00
2023-05-13T10:28:23.240Z,95643.00
2023-05-13T10:29:24.245Z,95643.00
2023-05-13T10:30:23.354Z,95645.00
2023-05-13T10:31:23.363Z,95645.00
2023-05-13T10:32:23.262Z,95647.00
2023-05-13T10:33:23.300Z,95647.00
2023-05-13T10:34:24.314Z,95649.00
2023-05-13T10:35:24.332Z,95649.00
2023-05-13T10:36:23.394Z,95649.00
2023-05-13T10:37:23.406Z,95647.00
2023-05-13T10:38:24.423Z,95657.00
2023-05-13T10:39:23.440Z,95647.00
2023-05-13T10:40:24.704Z,95645.00
2023-05-13T10:41:24.489Z,95645.00
2023-05-13T10:42:24.593Z,95645.00
2023-05-13T10:43:24.527Z,95643.00
2023-05-13T10:44:24.551Z,95643.00
2023-05-13T10:45:24.552Z,95641.00
2023-05-13T10:46:24.609Z,95643.00
2023-05-13T10:47:24.680Z,95643.00
2023-05-13T10:48:23.756Z,95639.00
2023-05-13T10:49:23.648Z,95641.00
2023-05-13T10:50:23.773Z,95641.00
2023-05-13T10:51:24.658Z,95643.00
2023-05-13T10:52:24.672Z,95641.00
2023-05-13T10:53:23.694Z,95643.00
2023-05-13T10:54:24.750Z,95639.00
2023-05-13T10:55:24.746Z,95637.00
2023-05-13T10:56:23.774Z,95635.00
2023-05-13T10:57:23.775Z,95635.00
2023-05-13T10:58:24.820Z,95634.00
2023-05-13T10:59:24.836Z,95630.00
2023-05-13T11:00:24.946Z,95630.00
2023-05-13T11:01:25.310Z,95632.00
2023-05-13T11:02:25.051Z,95632.00
2023-05-13T11:03:26.806Z,95632.00
2023-05-13T11:04:24.913Z,95634.00
2023-05-13T11:05:24.920Z,95635.00
2023-05-13T11:06:24.062Z,95635.00
2023-05-13T11:07:24.917Z,95637.00
2023-05-13T11:08:23.899Z,95637.00
2023-05-13T11:09:24.918Z,95635.00
2023-05-13T11:10:24.872Z,95635.00
2023-05-13T11:11:24.874Z,95637.00
2023-05-13T11:12:23.875Z,95635.00
2023-05-13T11:13:23.868Z,95635.00
2023-05-13T11:14:24.887Z,95635.00
2023-05-13T11:15:23.837Z,95635.00
2023-05-13T11:16:23.888Z,95635.00
2023-05-13T11:17:23.834Z,95637.00
2023-05-13T11:18:24.824Z,95635.00
2023-05-13T11:19:24.877Z,95635.00
2023-05-13T11:20:23.974Z,95635.00
2023-05-13T11:21:24.950Z,95635.00
2023-05-13T11:22:24.106Z,95635.00
2023-05-13T11:23:24.025Z,95635.00
2023-05-13T11:24:24.059Z,95637.00
2023-05-13T11:25:25.071Z,95634.00
2023-05-13T11:26:25.131Z,95634.00
2023-05-13T11:27:25.137Z,95630.00
2023-05-13T11:28:24.136Z,95634.00
2023-05-13T11:29:24.185Z,95632.00
2023-05-13T11:30:25.246Z,95632.00
2023-05-13T11:31:25.283Z,95634.00
2023-05-13T11:32:25.298Z,95635.00
2023-05-13T11:33:24.277Z,95630.00
2023-05-13T11:34:24.303Z,95632.00
2023-05-13T11:35:25.319Z,95635.00
2023-05-13T11:36:25.344Z,95634.00
2023-05-13T11:37:25.353Z,95635.00
2023-05-13T11:38:25.454Z,95630.00
2023-05-13T11:39:25.459Z,95632.00
2023-05-13T11:40:25.492Z,95630.00
2023-05-13T11:41:24.522Z,95630.00
2023-05-13T11:42:25.568Z,95630.00
2023-05-13T11:43:24.579Z,95630.00
2023-05-13T11:44:25.622Z,95630.00